Time;durP1;ratioP1;P1;durP2;ratioP2;P2;SDS_P1;SDS_P2;PMS_P1;PMS_P2;Temp;Humidity;BMP_temperature;BMP_pressure;BME280_temperature;BME280_humidity;BME280_pressure;Samples;Min_cycle;Max_cycle;Signal;HPM_P1;HPM_P2
2022/07/07 00:00:28;;;;;;;2.97;1.25;;;;;;;20.50;46.14;100158.94;4391197;32;32869;-91
2022/07/07 00:02:57;;;;;;;1.30;0.93;;;;;;;20.33;46.81;100152.22;4394775;32;33756;-90
2022/07/07 00:05:25;;;;;;;1.33;1.23;;;;;;;20.33;47.22;100152.22;4391657;32;33033;-91
2022/07/07 00:07:55;;;;;;;2.87;0.90;;;;;;;20.29;47.87;100150.72;4383610;32;33650;-90
2022/07/07 00:10:25;;;;;;;1.17;1.08;;;;;;;19.99;48.26;100156.63;4375188;32;287029;-89
2022/07/07 00:12:54;;;;;;;1.80;1.15;;;;;;;19.90;48.63;100164.44;4396037;32;33775;-89
2022/07/07 00:15:22;;;;;;;1.35;1.25;;;;;;;20.08;47.27;100159.50;4390912;32;34402;-89
2022/07/07 00:17:51;;;;;;;1.98;1.15;;;;;;;20.21;46.97;100154.84;4391117;32;34457;-89
2022/07/07 00:20:19;;;;;;;1.77;0.88;;;;;;;20.14;48.13;100159.00;4389135;32;32086;-89
2022/07/07 00:22:47;;;;;;;1.23;1.10;;;;;;;20.02;48.87;100162.63;4388452;32;32607;-89
2022/07/07 00:25:15;;;;;;;2.83;1.00;;;;;;;20.04;49.19;100144.59;4386137;32;32949;-89
2022/07/07 00:27:43;;;;;;;1.35;1.25;;;;;;;19.98;49.50;100150.44;4399889;32;33327;-89
2022/07/07 00:30:12;;;;;;;2.08;1.10;;;;;;;19.88;50.00;100146.75;4390196;32;33107;-89
2022/07/07 00:32:41;;;;;;;1.58;1.10;;;;;;;19.88;49.83;100149.44;4390200;32;33895;-90
2022/07/07 00:35:09;;;;;;;1.25;1.15;;;;;;;19.95;49.17;100153.38;4397300;32;34377;-89
2022/07/07 00:37:37;;;;;;;4.03;1.30;;;;;;;19.95;49.00;100148.00;4372796;32;32428;-89
2022/07/07 00:40:06;;;;;;;3.10;1.42;;;;;;;19.88;49.11;100144.91;4373202;32;32152;-89
2022/07/07 00:42:34;;;;;;;1.25;1.00;;;;;;;19.67;49.23;100150.09;4394962;32;33081;-90
2022/07/07 00:45:01;;;;;;;1.55;1.30;;;;;;;19.77;48.69;100149.41;4385102;32;33887;-89
2022/07/07 00:47:31;;;;;;;1.45;1.08;;;;;;;19.60;49.21;100151.53;4393061;32;35148;-89
2022/07/07 00:49:59;;;;;;;1.50;1.05;;;;;;;19.67;49.17;100152.78;4390085;32;33749;-89
2022/07/07 00:52:27;;;;;;;1.27;1.15;;;;;;;19.56;50.08;100158.09;4408967;32;32882;-90
2022/07/07 00:54:57;;;;;;;2.92;1.00;;;;;;;19.54;49.66;100154.66;4380361;32;34033;-90
2022/07/07 00:57:26;;;;;;;1.75;1.25;;;;;;;19.39;50.74;100161.16;4385798;32;32975;-89
2022/07/07 00:59:58;;;;;;;2.25;1.83;;;;;;;19.44;50.55;100161.66;4392207;32;33594;-90
2022/07/07 01:02:31;;;;;;;1.48;1.00;;;;;;;19.35;50.60;100160.53;4375084;32;32676;-90
2022/07/07 01:05:02;;;;;;;1.77;1.00;;;;;;;19.48;50.20;100163.16;4401075;32;33534;-89
2022/07/07 01:07:31;;;;;;;1.15;1.02;;;;;;;19.29;49.61;100165.50;4403239;32;34267;-89
2022/07/07 01:10:00;;;;;;;2.65;1.23;;;;;;;19.30;49.81;100164.50;4383949;32;33309;-90
2022/07/07 01:12:39;;;;;;;1.12;1.08;;;;;;;19.31;50.02;100159.03;4383757;32;32561;-89
2022/07/07 01:15:10;;;;;;;1.10;0.98;;;;;;;19.06;50.26;100154.66;4394077;32;33548;-89
2022/07/07 01:17:40;;;;;;;0.95;0.85;;;;;;;19.20;50.26;100156.31;4387734;32;32285;-90
2022/07/07 01:20:10;;;;;;;1.75;1.12;;;;;;;18.96;51.04;100147.41;4383280;32;32536;-89
2022/07/07 01:22:44;;;;;;;1.60;1.10;;;;;;;19.08;50.52;100152.69;4385721;32;33910;-89
2022/07/07 01:25:13;;;;;;;2.83;1.37;;;;;;;19.16;50.56;100158.34;4393014;32;33168;-90
2022/07/07 01:27:42;;;;;;;1.20;1.10;;;;;;;19.09;50.85;100161.63;4377467;32;33752;-90
2022/07/07 01:30:10;;;;;;;1.40;1.15;;;;;;;19.11;50.95;100157.00;4393816;32;32831;-89
2022/07/07 01:32:38;;;;;;;1.12;1.02;;;;;;;19.11;50.89;100157.84;4396234;32;34592;-89
2022/07/07 01:35:07;;;;;;;1.33;1.23;;;;;;;19.17;50.75;100157.38;4391120;32;33677;-89
2022/07/07 01:37:39;;;;;;;1.67;1.30;;;;;;;19.11;51.02;100151.63;4381866;32;34085;-89
2022/07/07 01:40:10;;;;;;;2.47;1.10;;;;;;;19.08;50.68;100152.69;4388459;32;31937;-90
2022/07/07 01:42:38;;;;;;;3.53;1.33;;;;;;;18.89;51.65;100163.03;4393866;32;32985;-89
2022/07/07 01:45:08;;;;;;;1.10;1.00;;;;;;;18.95;51.45;100154.59;4382462;32;34182;-89
2022/07/07 01:47:36;;;;;;;1.37;1.10;;;;;;;18.99;51.36;100164.09;4389554;32;32571;-89
2022/07/07 01:50:05;;;;;;;4.80;1.50;;;;;;;18.85;52.39;100162.44;4389506;32;32404;-90
2022/07/07 01:52:35;;;;;;;1.02;1.02;;;;;;;18.75;52.61;100165.84;4410651;32;33970;-89
2022/07/07 01:55:04;;;;;;;1.37;1.27;;;;;;;18.72;52.79;100166.09;4396958;32;34062;-88
2022/07/07 01:57:33;;;;;;;0.98;0.95;;;;;;;18.71;52.51;100165.25;4382553;32;34051;-89
2022/07/07 02:00:00;;;;;;;3.10;1.45;;;;;;;18.63;52.80;100163.06;4387477;32;33534;-88
2022/07/07 02:02:32;;;;;;;1.45;1.35;;;;;;;18.63;52.88;100173.78;4380174;32;32771;-89
2022/07/07 02:05:00;;;;;;;2.65;1.20;;;;;;;18.66;52.91;100173.56;4409586;32;33890;-88
2022/07/07 02:07:28;;;;;;;2.00;1.35;;;;;;;18.34;53.84;100165.13;4392027;32;33603;-89
2022/07/07 02:09:56;;;;;;;1.73;1.30;;;;;;;18.51;53.75;100169.28;4399053;32;31784;-89
2022/07/07 02:12:24;;;;;;;1.20;1.10;;;;;;;18.41;53.80;100163.72;4395440;32;33117;-89
2022/07/07 02:14:52;;;;;;;1.90;1.35;;;;;;;18.46;53.69;100163.41;4377012;32;33549;-89
2022/07/07 02:17:20;;;;;;;1.58;1.30;;;;;;;18.51;53.49;100168.44;4391181;32;35509;-89
2022/07/07 02:19:51;;;;;;;1.12;1.02;;;;;;;18.48;53.72;100164.16;4395772;32;32204;-89
2022/07/07 02:22:20;;;;;;;1.92;1.60;;;;;;;18.57;53.37;100162.66;4384093;32;32479;-89
2022/07/07 02:24:47;;;;;;;3.10;1.35;;;;;;;18.47;53.97;100159.78;4371960;32;34627;-88
2022/07/07 02:27:15;;;;;;;1.65;1.10;;;;;;;18.43;53.68;100171.66;4386297;32;33972;-88
2022/07/07 02:29:43;;;;;;;2.47;1.37;;;;;;;18.33;54.05;100166.09;4392790;32;32021;-88
2022/07/07 02:32:11;;;;;;;5.40;1.30;;;;;;;18.29;54.41;100169.94;4366026;32;33367;-87
2022/07/07 02:34:39;;;;;;;1.40;1.30;;;;;;;18.30;54.08;100171.66;4395696;32;31794;-88
2022/07/07 02:37:08;;;;;;;1.90;1.25;;;;;;;18.50;53.52;100175.59;4387584;32;34496;-88
2022/07/07 02:39:36;;;;;;;2.45;1.33;;;;;;;18.37;54.06;100172.06;4389018;32;32898;-88
2022/07/07 02:42:04;;;;;;;2.87;1.10;;;;;;;18.23;54.65;100174.84;4386032;32;33813;-88
2022/07/07 02:44:32;;;;;;;1.48;1.37;;;;;;;18.10;55.10;100174.88;4403079;32;32925;-89
2022/07/07 02:47:00;;;;;;;1.75;1.45;;;;;;;17.79;55.64;100170.75;4406793;32;33867;-91
2022/07/07 02:49:29;;;;;;;1.75;1.55;;;;;;;17.80;56.04;100177.78;4401846;32;32609;-90
2022/07/07 02:51:58;;;;;;;3.30;1.40;;;;;;;17.72;56.16;100175.63;4401764;32;33452;-89
2022/07/07 02:54:25;;;;;;;1.67;1.55;;;;;;;17.83;55.83;100178.44;4392263;32;33888;-88
2022/07/07 02:56:54;;;;;;;1.33;1.23;;;;;;;17.86;55.45;100182.75;4404212;32;32774;-88
2022/07/07 02:59:24;;;;;;;1.55;1.45;;;;;;;17.68;56.24;100176.78;4415588;32;33074;-88
2022/07/07 03:01:54;;;;;;;3.08;1.33;;;;;;;17.77;56.00;100178.03;4403866;32;33547;-88
2022/07/07 03:04:25;;;;;;;;;;;;;;;17.82;55.79;100181.22;4384644;32;33826;-88
2022/07/07 03:06:53;;;;;;;1.65;1.50;;;;;;;17.87;56.00;100176.44;4417405;32;34734;-88
2022/07/07 03:09:21;;;;;;;2.58;1.42;;;;;;;17.76;56.07;100179.00;4406560;32;33184;-88
2022/07/07 03:11:49;;;;;;;5.90;1.65;;;;;;;17.63;56.69;100181.59;4393193;32;34124;-88
2022/07/07 03:14:18;;;;;;;1.60;1.50;;;;;;;17.99;55.41;100175.56;4404269;32;32990;-87
2022/07/07 03:16:45;;;;;;;1.92;1.60;;;;;;;17.27;57.96;100179.53;4423736;32;32799;-88
2022/07/07 03:19:13;;;;;;;1.77;1.42;;;;;;;17.55;57.31;100181.22;4390113;32;32513;-87
2022/07/07 03:21:41;;;;;;;1.45;1.35;;;;;;;17.50;57.48;100183.34;4402154;32;33144;-87
2022/07/07 03:24:09;;;;;;;2.50;1.65;;;;;;;17.45;57.59;100182.81;4418308;32;33956;-90
2022/07/07 03:26:38;;;;;;;2.40;1.33;;;;;;;17.63;57.20;100177.09;4410659;32;34151;-90
2022/07/07 03:29:06;;;;;;;1.65;1.55;;;;;;;17.41;58.25;100179.47;4390266;32;33854;-90
2022/07/07 03:31:35;;;;;;;2.30;2.10;;;;;;;17.36;58.50;100181.59;4399475;32;33822;-89
2022/07/07 03:34:03;;;;;;;2.87;1.70;;;;;;;17.56;58.37;100185.59;4377897;32;32289;-89
2022/07/07 03:36:31;;;;;;;2.75;1.55;;;;;;;17.73;57.90;100177.38;4400694;32;34734;-89
2022/07/07 03:38:59;;;;;;;2.00;1.58;;;;;;;17.74;57.87;100178.22;4403848;32;33110;-89
2022/07/07 03:41:28;;;;;;;4.35;1.87;;;;;;;17.88;57.73;100186.16;4399672;32;33927;-89
2022/07/07 03:43:57;;;;;;;2.92;2.20;;;;;;;18.05;57.33;100188.53;4399343;32;33509;-88
2022/07/07 03:46:25;;;;;;;2.55;1.83;;;;;;;17.98;57.52;100186.37;4411040;32;33701;-90
2022/07/07 03:48:55;;;;;;;3.70;3.10;;;;;;;18.01;57.61;100180.84;4378335;32;32284;-90
2022/07/07 03:51:23;;;;;;;7.93;3.20;;;;;;;18.08;58.17;100193.66;4406151;32;33851;-88
2022/07/07 03:53:54;;;;;;;4.43;2.62;;;;;;;18.06;58.85;100190.25;4388966;32;33787;-88
2022/07/07 03:56:23;;;;;;;4.87;2.30;;;;;;;18.26;58.32;100180.84;4401610;32;32484;-88
2022/07/07 03:58:57;;;;;;;2.85;2.20;;;;;;;18.46;57.70;100186.63;4401947;32;33533;-87
2022/07/07 04:01:31;;;;;;;2.28;2.03;;;;;;;18.59;57.44;100180.28;4407774;32;33452;-88
2022/07/07 04:03:59;;;;;;;2.35;2.00;;;;;;;18.82;56.63;100176.00;4406099;32;34662;-88
2022/07/07 04:06:33;;;;;;;3.42;2.33;;;;;;;18.97;56.17;100166.03;4403732;32;32993;-89
2022/07/07 04:09:02;;;;;;;2.80;2.10;;;;;;;19.14;55.56;100164.81;4397053;32;33027;-89
2022/07/07 04:11:30;;;;;;;4.30;2.47;;;;;;;19.28;55.86;100171.81;4391376;32;34161;-89
2022/07/07 04:14:06;;;;;;;6.10;2.28;;;;;;;19.26;56.22;100171.06;4395823;32;34685;-89
2022/07/07 04:16:36;;;;;;;3.00;2.15;;;;;;;19.56;55.61;100170.59;4410051;32;32958;-89
2022/07/07 04:19:04;;;;;;;2.83;2.37;;;;;;;19.72;54.60;100173.03;4396257;32;33091;-90
2022/07/07 04:21:32;;;;;;;2.37;2.12;;;;;;;19.81;54.77;100172.31;4394172;32;33751;-90
2022/07/07 04:24:00;;;;;;;4.87;2.00;;;;;;;20.14;53.67;100167.03;4399684;32;33442;-90
2022/07/07 04:26:28;;;;;;;2.55;1.90;;;;;;;20.12;54.01;100166.28;4402810;32;33586;-90
2022/07/07 04:28:57;;;;;;;3.25;2.00;;;;;;;20.36;53.08;100165.34;4376428;32;32049;-89
2022/07/07 04:31:25;;;;;;;2.83;2.25;;;;;;;20.37;53.38;100159.88;4402140;32;32959;-90
2022/07/07 04:33:54;;;;;;;2.75;1.98;;;;;;;20.60;52.54;100155.37;4397043;32;34795;-90
2022/07/07 04:36:25;;;;;;;3.25;2.10;;;;;;;20.58;53.12;100152.00;4417511;32;34161;-88
2022/07/07 04:38:56;;;;;;;3.92;1.33;;;;;;;20.72;52.38;100158.94;4395670;32;32630;-88
2022/07/07 04:41:24;;;;;;;3.03;1.80;;;;;;;21.00;51.29;100152.19;4416007;32;32617;-89
2022/07/07 04:43:52;;;;;;;3.58;1.92;;;;;;;21.12;51.12;100151.16;4413758;32;36465;-90
2022/07/07 04:46:21;;;;;;;3.33;1.67;;;;;;;21.22;50.69;100152.16;4402324;32;33152;-89
2022/07/07 04:48:49;;;;;;;2.85;1.60;;;;;;;21.43;50.01;100159.44;4375641;32;33170;-88
2022/07/07 04:51:18;;;;;;;11.38;2.00;;;;;;;21.51;48.90;100154.28;4390888;32;33660;-89
2022/07/07 04:53:48;;;;;;;2.97;1.85;;;;;;;21.91;48.08;100148.22;4391369;32;32830;-89
2022/07/07 04:56:17;;;;;;;1.60;1.35;;;;;;;21.88;47.78;100154.69;4401537;32;32772;-89
2022/07/07 04:58:45;;;;;;;1.55;1.37;;;;;;;21.72;48.99;100154.28;4388270;32;33498;-89
2022/07/07 05:01:15;;;;;;;3.92;1.60;;;;;;;21.87;48.50;100149.44;4403707;32;34684;-89
2022/07/07 05:03:44;;;;;;;2.28;1.40;;;;;;;22.16;47.53;100146.97;4397280;32;32966;-89
2022/07/07 05:06:14;;;;;;;5.25;1.70;;;;;;;22.39;47.06;100153.06;4415589;32;33549;-88
2022/07/07 05:08:43;;;;;;;1.92;1.80;;;;;;;22.39;47.52;100150.34;4414051;32;33841;-89
2022/07/07 05:13:52;;;;;;;1.87;1.35;;;;;;;22.52;47.49;100145.63;4402987;32;34260;-89
2022/07/07 05:16:21;;;;;;;2.60;1.65;;;;;;;22.63;46.93;100150.88;4390037;32;32498;-90
2022/07/07 05:18:49;;;;;;;1.60;1.50;;;;;;;22.86;46.21;100156.06;4414557;32;32834;-89
2022/07/07 05:21:18;;;;;;;3.50;1.75;;;;;;;22.72;46.69;100152.75;4392444;32;34612;-89
2022/07/07 05:23:48;;;;;;;3.03;1.50;;;;;;;22.74;45.23;100150.81;4394257;32;33926;-89
2022/07/07 05:26:17;;;;;;;2.75;1.70;;;;;;;23.11;44.31;100150.22;4387982;32;32526;-90
2022/07/07 05:28:46;;;;;;;1.95;1.35;;;;;;;23.12;44.06;100145.66;4401556;32;32979;-90
2022/07/07 05:31:16;;;;;;;2.75;1.75;;;;;;;23.38;43.51;100141.47;4403904;32;33630;-90
2022/07/07 05:33:44;;;;;;;2.42;1.58;;;;;;;23.47;42.73;100146.00;4394837;32;33938;-90
2022/07/07 05:36:13;;;;;;;4.95;1.73;;;;;;;23.73;42.17;100140.91;4403784;32;32311;-90
2022/07/07 05:38:50;;;;;;;4.62;1.30;;;;;;;23.63;41.38;100145.44;4404867;32;33420;-90
2022/07/07 05:41:19;;;;;;;1.60;1.50;;;;;;;23.91;42.04;100140.19;4402053;32;34028;-90
2022/07/07 05:43:49;;;;;;;2.12;1.70;;;;;;;24.22;39.15;100146.25;4380166;32;33059;-90
2022/07/07 05:46:17;;;;;;;2.22;1.60;;;;;;;24.30;39.53;100145.50;4405237;32;34024;-90
2022/07/07 05:48:49;;;;;;;3.15;1.75;;;;;;;24.31;38.79;100148.06;4402555;32;34374;-90
2022/07/07 05:51:20;;;;;;;;;;;;;;;24.26;39.69;100148.50;4405307;32;33911;-89
2022/07/07 05:53:49;;;;;;;1.75;1.45;;;;;;;24.35;38.63;100143.19;4396998;32;33446;-90
2022/07/07 05:56:17;;;;;;;2.42;1.77;;;;;;;24.36;39.45;100150.31;4403584;32;32470;-90
2022/07/07 05:58:47;;;;;;;2.42;1.40;;;;;;;24.41;39.39;100151.63;4402379;32;33051;-90
2022/07/07 06:01:14;;;;;;;2.75;1.70;;;;;;;24.59;39.84;100143.56;4405485;32;33955;-90
2022/07/07 06:03:43;;;;;;;4.78;1.73;;;;;;;24.64;39.34;100151.22;4403566;32;33083;-90
2022/07/07 06:06:16;;;;;;;2.20;1.20;;;;;;;24.32;40.01;100144.38;4411956;32;33640;-90
2022/07/07 06:08:46;;;;;;;2.65;1.35;;;;;;;24.52;39.69;100147.88;4403320;32;33311;-90
2022/07/07 06:11:16;;;;;;;1.40;1.30;;;;;;;24.30;38.52;100148.19;4409279;32;33875;-88
2022/07/07 06:13:52;;;;;;;2.05;1.40;;;;;;;24.60;37.70;100156.09;4413154;32;34134;-90
2022/07/07 06:16:38;;;;;;;3.22;1.40;;;;;;;24.51;37.27;100147.03;4406063;32;33170;-90
2022/07/07 06:19:11;;;;;;;1.98;1.40;;;;;;;24.80;36.71;100153.31;4394080;32;33453;-89
2022/07/07 06:21:41;;;;;;;5.25;1.98;;;;;;;24.74;36.28;100149.34;4419328;32;32521;-89
2022/07/07 06:24:11;;;;;;;1.60;1.08;;;;;;;25.25;35.45;100146.06;4387247;32;32613;-91
2022/07/07 06:26:45;;;;;;;3.78;1.35;;;;;;;25.38;35.40;100150.25;4401602;32;34318;-89
2022/07/07 06:29:14;;;;;;;4.12;1.37;;;;;;;25.13;35.66;100147.31;4399336;32;31974;-90
2022/07/07 06:31:44;;;;;;;4.10;1.40;;;;;;;25.71;36.38;100146.84;4403000;32;33711;-90
2022/07/07 06:34:13;;;;;;;2.87;1.40;;;;;;;25.62;35.21;100155.06;4403867;32;33811;-87
2022/07/07 06:36:41;;;;;;;1.98;1.52;;;;;;;25.86;34.54;100143.62;4402186;32;33370;-90
2022/07/07 06:39:09;;;;;;;4.53;1.20;;;;;;;25.28;35.70;100147.62;4402612;32;33334;-89
2022/07/07 06:41:40;;;;;;;3.33;1.17;;;;;;;25.96;35.55;100138.94;4400649;32;33899;-90
2022/07/07 06:44:12;;;;;;;3.47;1.57;;;;;;;25.90;35.37;100145.84;4404295;32;33755;-90
2022/07/07 06:46:41;;;;;;;2.35;1.45;;;;;;;25.82;34.99;100142.22;4392705;32;32397;-91
2022/07/07 06:49:13;;;;;;;3.80;1.15;;;;;;;26.52;33.35;100137.66;4394122;32;32708;-88
2022/07/07 06:51:42;;;;;;;2.33;1.58;;;;;;;26.28;34.83;100139.19;4417900;32;33680;-88
2022/07/07 06:54:11;;;;;;;1.73;1.33;;;;;;;26.20;34.48;100140.97;4403895;32;33586;-88
2022/07/07 06:56:42;;;;;;;5.00;1.52;;;;;;;26.08;35.34;100136.84;4402301;32;33745;-88
2022/07/07 06:59:21;;;;;;;1.50;1.40;;;;;;;26.04;36.04;100136.31;4406942;32;32254;-87
2022/07/07 07:01:50;;;;;;;1.23;1.12;;;;;;;25.87;34.37;100134.50;4404404;32;35274;-84
2022/07/07 07:04:19;;;;;;;2.03;1.50;;;;;;;26.16;34.61;100136.88;4400442;32;33393;-87
2022/07/07 07:06:48;;;;;;;5.25;1.35;;;;;;;26.35;33.88;100133.13;4388517;32;32925;-87
2022/07/07 07:09:20;;;;;;;1.20;1.10;;;;;;;25.67;34.99;100144.59;4391347;32;33179;-87
2022/07/07 07:11:51;;;;;;;2.50;1.23;;;;;;;25.75;34.58;100147.41;4393060;32;36316;-87
2022/07/07 07:14:27;;;;;;;4.30;1.40;;;;;;;26.38;34.59;100139.06;4381680;32;32658;-87
2022/07/07 07:16:57;;;;;;;1.73;1.40;;;;;;;26.30;33.81;100131.75;4386735;32;33204;-87
2022/07/07 07:19:27;;;;;;;1.48;1.17;;;;;;;26.55;32.92;100137.34;4399016;32;33116;-87
2022/07/07 07:21:58;;;;;;;1.50;1.40;;;;;;;26.35;33.42;100125.88;4417877;32;32676;-87
2022/07/07 07:24:26;;;;;;;2.58;1.70;;;;;;;26.93;34.18;100122.41;4391245;32;34289;-87
2022/07/07 07:26:53;;;;;;;2.58;1.42;;;;;;;27.31;32.93;100129.16;4401778;32;34153;-87
2022/07/07 07:29:22;;;;;;;6.47;1.60;;;;;;;27.15;33.28;100125.53;4405318;32;32596;-88
2022/07/07 07:31:50;;;;;;;1.30;1.20;;;;;;;27.01;33.43;100125.16;4388934;32;33654;-85
2022/07/07 07:34:21;;;;;;;2.25;1.58;;;;;;;27.55;34.83;100127.47;4403470;32;33268;-85
2022/07/07 07:36:50;;;;;;;6.05;1.50;;;;;;;27.31;32.52;100109.31;4401956;32;33929;-88
2022/07/07 07:39:18;;;;;;;3.47;1.20;;;;;;;26.78;34.54;100121.34;4401584;32;32724;-87
2022/07/07 07:41:47;;;;;;;1.92;1.30;;;;;;;27.27;33.96;100116.94;4392250;32;32723;-88
2022/07/07 07:47:11;;;;;;;14.55;2.15;;;;;;;27.06;33.12;100117.38;4401486;32;33755;-88
2022/07/07 07:49:41;;;;;;;5.18;1.40;;;;;;;27.65;34.57;100114.59;4403601;32;33528;-87
2022/07/07 07:52:11;;;;;;;3.30;1.40;;;;;;;27.93;32.37;100106.13;4389805;32;35024;-88
2022/07/07 07:54:39;;;;;;;5.95;1.65;;;;;;;27.87;33.58;100112.22;4392688;32;33475;-88
2022/07/07 07:57:11;;;;;;;3.35;1.15;;;;;;;27.48;32.50;100123.72;4390325;32;33939;-87
2022/07/07 07:59:44;;;;;;;5.82;1.15;;;;;;;28.00;33.15;100118.00;4399931;32;32520;-87
2022/07/07 08:02:12;;;;;;;2.70;1.50;;;;;;;28.23;31.28;100110.81;4390644;32;33808;-87
2022/07/07 08:04:41;;;;;;;1.60;1.40;;;;;;;28.20;31.08;100116.62;4388390;32;33573;-87
2022/07/07 08:07:11;;;;;;;3.35;1.17;;;;;;;27.93;31.57;100122.41;4398855;32;33317;-86
2022/07/07 08:09:39;;;;;;;5.07;1.62;;;;;;;28.27;31.71;100114.87;4401666;32;31186;-89
2022/07/07 08:12:10;;;;;;;4.07;1.08;;;;;;;27.72;31.76;100126.47;4391859;32;31102;-88
2022/07/07 08:14:39;;;;;;;3.22;1.52;;;;;;;28.12;31.72;100113.91;4407373;32;32144;-88
2022/07/07 08:17:12;;;;;;;3.97;1.85;;;;;;;28.03;31.88;100114.94;4388044;32;33036;-87
2022/07/07 08:19:43;;;;;;;1.40;1.23;;;;;;;28.45;32.46;100113.84;4407324;32;32107;-85
2022/07/07 08:22:12;;;;;;;4.37;1.27;;;;;;;28.56;31.74;100110.75;4401957;32;33542;-88
2022/07/07 08:24:44;;;;;;;6.10;1.30;;;;;;;28.43;30.31;100113.16;4401254;32;33455;-87
2022/07/07 08:27:13;;;;;;;1.62;1.50;;;;;;;28.14;31.07;100116.44;4394112;32;30722;-88
2022/07/07 08:29:42;;;;;;;1.87;1.27;;;;;;;28.07;30.42;100117.12;4400186;32;33987;-88
2022/07/07 08:32:11;;;;;;;4.62;1.23;;;;;;;28.06;29.90;100114.59;4413575;32;32594;-88
2022/07/07 08:34:40;;;;;;;6.75;1.67;;;;;;;28.55;30.60;100109.06;4400187;32;33133;-89
2022/07/07 08:37:10;;;;;;;6.50;1.50;;;;;;;27.89;31.93;100107.50;4399824;32;33050;-88
2022/07/07 08:39:42;;;;;;;3.85;1.33;;;;;;;27.57;30.51;100111.87;4400626;32;33131;-88
2022/07/07 08:42:11;;;;;;;2.40;1.15;;;;;;;27.86;30.99;100108.66;4386783;32;33050;-88
2022/07/07 08:44:39;;;;;;;3.10;1.27;;;;;;;28.14;31.84;100106.44;4396635;32;33141;-88
2022/07/07 08:47:09;;;;;;;3.17;1.52;;;;;;;28.33;29.99;100106.03;4414132;32;33956;-89
2022/07/07 08:49:39;;;;;;;1.23;1.10;;;;;;;27.96;30.36;100108.50;4401452;32;33399;-89
2022/07/07 08:52:11;;;;;;;4.12;1.33;;;;;;;27.62;31.83;100106.78;4407325;32;32357;-90
2022/07/07 08:54:45;;;;;;;2.97;1.37;;;;;;;27.58;34.13;100100.00;4389248;32;34361;-88
2022/07/07 08:57:15;;;;;;;1.08;1.02;;;;;;;27.24;32.63;100108.28;4402883;32;32767;-89
2022/07/07 08:59:46;;;;;;;1.92;1.42;;;;;;;27.35;31.57;100096.25;4389790;32;32846;-90
2022/07/07 09:02:13;;;;;;;3.35;1.17;;;;;;;27.27;33.64;100103.38;4401518;32;34080;-91
2022/07/07 09:04:43;;;;;;;2.20;1.52;;;;;;;27.14;32.97;100104.87;4399538;32;33932;-91
2022/07/07 09:07:12;;;;;;;3.03;1.33;;;;;;;26.99;32.37;100096.53;4399465;32;33335;-89
2022/07/07 09:09:54;;;;;;;2.85;1.35;;;;;;;27.00;32.59;100092.78;4394513;32;31974;-90
2022/07/07 09:12:27;;;;;;;1.77;1.30;;;;;;;27.39;34.13;100097.63;4404935;32;32931;-88
2022/07/07 09:15:03;;;;;;;5.05;1.20;;;;;;;27.50;33.34;100089.16;4406350;32;32853;-89
2022/07/07 09:17:37;;;;;;;6.22;1.52;;;;;;;27.55;33.05;100089.50;4405852;32;34706;-87
2022/07/07 09:20:09;;;;;;;3.03;1.75;;;;;;;27.40;32.25;100096.62;4388070;32;32959;-87
2022/07/07 09:22:49;;;;;;;3.35;1.42;;;;;;;27.48;32.04;100093.91;4395574;32;32064;-87
2022/07/07 09:25:25;;;;;;;5.05;1.70;;;;;;;27.96;32.19;100090.34;4401005;32;32873;-87
2022/07/07 09:28:03;;;;;;;1.95;1.40;;;;;;;28.02;32.61;100091.53;4397429;32;33555;-86
2022/07/07 09:30:37;;;;;;;3.90;1.60;;;;;;;27.99;31.33;100092.72;4388482;32;32813;-88
2022/07/07 09:33:22;;;;;;;5.22;1.75;;;;;;;27.98;31.34;100095.63;4416226;32;33976;-88
2022/07/07 09:38:49;;;;;;;4.57;1.40;;;;;;;27.78;29.49;100101.41;4399991;32;33086;-87
2022/07/07 09:41:21;;;;;;;1.95;1.25;;;;;;;28.22;29.67;100102.84;4400387;32;34127;-87
2022/07/07 09:43:56;;;;;;;2.95;1.20;;;;;;;28.06;30.27;100098.31;4394645;32;32466;-87
2022/07/07 09:46:29;;;;;;;2.92;1.35;;;;;;;28.14;31.18;100101.00;4383616;32;33883;-88
2022/07/07 09:49:03;;;;;;;4.72;1.83;;;;;;;27.75;30.88;100104.44;4389714;32;34017;-87
2022/07/07 09:51:33;;;;;;;4.05;1.30;;;;;;;28.60;32.23;100101.22;4395047;32;32383;-87
2022/07/07 09:54:15;;;;;;;4.57;1.25;;;;;;;28.68;30.93;100108.50;4389965;32;36051;-87
2022/07/07 09:56:46;;;;;;;2.40;1.03;;;;;;;29.02;30.55;100094.59;4378830;32;33563;-87
2022/07/07 09:59:19;;;;;;;7.15;1.35;;;;;;;28.38;29.40;100091.97;4396014;32;33377;-87
2022/07/07 10:01:52;;;;;;;2.28;1.58;;;;;;;28.12;29.70;100096.78;4386680;32;32458;-87
2022/07/07 10:04:22;;;;;;;1.45;1.35;;;;;;;28.90;29.52;100090.53;4398817;32;33798;-87
2022/07/07 10:06:59;;;;;;;2.97;1.15;;;;;;;28.87;29.80;100085.50;4397998;32;34489;-87
2022/07/07 10:09:28;;;;;;;7.22;1.33;;;;;;;28.87;29.86;100090.91;4393890;32;34464;-87
2022/07/07 10:11:57;;;;;;;0.60;0.60;;;;;;;28.45;26.57;100090.25;4379142;32;32143;-87
2022/07/07 10:14:34;;;;;;;1.00;1.00;;;;;;;28.55;27.11;100087.31;4375713;32;33979;-88
2022/07/07 10:17:04;;;;;;;1.62;1.00;;;;;;;28.61;26.52;100083.91;4383472;32;33868;-89
2022/07/07 10:19:32;;;;;;;5.32;1.15;;;;;;;29.01;26.86;100084.75;4380881;32;32781;-88
2022/07/07 10:22:02;;;;;;;1.23;0.90;;;;;;;29.18;26.84;100077.31;4375902;32;32650;-88
2022/07/07 10:24:32;;;;;;;2.40;1.40;;;;;;;29.20;26.44;100081.56;4379993;32;34137;-89
2022/07/07 10:27:04;;;;;;;1.50;1.00;;;;;;;29.14;26.44;100081.44;4394100;32;32538;-89
2022/07/07 10:29:46;;;;;;;2.42;0.90;;;;;;;28.82;28.54;100072.44;4395467;32;33970;-89
2022/07/07 10:32:34;;;;;;;1.33;1.23;;;;;;;28.94;30.26;100078.28;4393819;32;32763;-89
2022/07/07 10:35:13;;;;;;;4.93;1.12;;;;;;;28.80;28.04;100075.31;4393603;32;35143;-89
2022/07/07 10:37:49;;;;;;;2.40;0.85;;;;;;;29.61;28.67;100072.25;4395342;32;34466;-89
2022/07/07 10:40:18;;;;;;;4.28;1.10;;;;;;;29.76;28.93;100071.25;4360127;32;34206;-89
2022/07/07 10:43:26;;;;;;;2.00;1.00;;;;;;;29.51;29.34;100069.75;4392402;32;32549;-89
2022/07/07 10:45:58;;;;;;;2.58;1.40;;;;;;;29.59;28.01;100064.28;4400858;32;34319;-89
2022/07/07 10:48:44;;;;;;;1.37;1.00;;;;;;;29.43;28.30;100064.37;4404026;32;33334;-88
2022/07/07 10:51:17;;;;;;;5.07;1.20;;;;;;;29.55;28.30;100069.25;4411375;32;33569;-89
2022/07/07 10:54:13;;;;;;;1.52;1.05;;;;;;;29.65;29.10;100066.25;4417667;32;33295;-89
2022/07/07 10:56:51;;;;;;;1.95;1.05;;;;;;;29.39;28.19;100063.91;4397050;32;33362;-89
2022/07/07 10:59:20;;;;;;;1.45;1.20;;;;;;;29.81;28.56;100057.09;4417574;32;33065;-89
2022/07/07 11:02:02;;;;;;;5.53;1.30;;;;;;;29.76;29.22;100064.97;4405222;32;32775;-88
2022/07/07 11:04:43;;;;;;;3.65;1.42;;;;;;;29.57;30.00;100066.31;4407708;32;33482;-89
2022/07/07 11:07:21;;;;;;;1.50;1.40;;;;;;;30.37;31.34;100059.41;4416440;32;33853;-89
2022/07/07 11:10:12;;;;;;;1.60;1.08;;;;;;;30.17;27.21;100053.69;4406792;32;32794;-89
2022/07/07 11:12:53;;;;;;;1.70;1.50;;;;;;;29.64;28.21;100045.53;4409054;32;33676;-90
2022/07/07 11:15:22;;;;;;;3.90;1.20;;;;;;;28.87;29.00;100053.72;4407096;32;32382;-89
2022/07/07 11:17:55;;;;;;;1.80;1.40;;;;;;;29.45;29.78;100046.84;4402990;32;33356;-90
2022/07/07 11:20:29;;;;;;;3.12;1.27;;;;;;;29.69;29.80;100042.25;4408585;32;34014;-89
2022/07/07 11:23:13;;;;;;;1.95;1.02;;;;;;;29.46;29.02;100048.53;4414096;32;35788;-89
2022/07/07 11:28:24;;;;;;;1.12;1.02;;;;;;;29.29;28.30;100036.97;4399275;32;33044;-89
2022/07/07 11:31:00;;;;;;;;;;;;;;;28.54;28.84;100034.03;4386312;32;32967;-89
2022/07/07 11:33:29;;;;;;;1.30;1.12;;;;;;;28.27;30.45;100038.84;4411820;32;33940;-89
2022/07/07 11:35:58;;;;;;;1.65;1.10;;;;;;;28.71;30.15;100035.62;4409631;32;34109;-89
2022/07/07 11:38:29;;;;;;;1.60;1.40;;;;;;;28.59;29.89;100037.06;4409676;32;34098;-90
2022/07/07 11:41:00;;;;;;;2.20;0.93;;;;;;;28.12;31.39;100037.06;4399357;32;33281;-89
2022/07/07 11:46:06;;;;;;;1.25;0.80;;;;;;;29.32;29.93;100022.97;4397033;32;34085;-89
2022/07/07 11:48:37;;;;;;;2.42;0.90;;;;;;;29.31;29.02;100024.03;4389796;32;32729;-89
2022/07/07 11:51:06;;;;;;;2.97;1.25;;;;;;;29.68;28.88;100008.75;4384358;32;32983;-90
2022/07/07 11:53:35;;;;;;;3.30;1.20;;;;;;;29.67;28.31;100012.47;4396010;32;32642;-89
2022/07/07 11:56:03;;;;;;;5.65;1.17;;;;;;;29.93;30.46;100005.78;4394613;32;34066;-90